Ipswich, South Dakota
Current Conditions -  °F | °C
As of 8:53 AM on Thursday 30 Oct 2014 (Local Time) from KABR Reporting Station
Overcast Overcast  
Wind Chill: 30°   Ceiling: 700
Heat Index: 39°   Visibility: 10mi
Dew Point: 36°   Wind: 17mph
Humidity: 89%   Direction: 350°N
Pressure: 30.13"   Gusts: NA
Location:  45.44°N, 99.03°W
Report Text: KABR 301353Z AUTO 35015KT 10SM OVC007 04/02 A3013 RMK AO2 SLP210 T00390022
Loading
Personal Weather Stations






























Interactive Weather Map
Tropical Storm Tracking
New forecast layout! Learn more

10-Day Weather Forecast

Advertisements
Track Severe Weather on mobile